createdAt,value
2023-02-28T00:00:33.168Z,13.91
2023-02-28T00:01:31.104Z,14.62
2023-02-28T00:02:28.720Z,14.23
2023-02-28T00:03:26.307Z,13.75
2023-02-28T00:04:23.764Z,14.69
2023-02-28T00:05:22.989Z,14.49
2023-02-28T00:06:21.031Z,14.80
2023-02-28T00:07:18.405Z,15.26
2023-02-28T00:08:15.948Z,15.78
2023-02-28T00:09:13.288Z,16.08
2023-02-28T00:10:12.136Z,16.38
2023-02-28T00:11:11.206Z,17.56
2023-02-28T00:12:11.094Z,17.83
2023-02-28T00:13:08.537Z,17.91
2023-02-28T00:14:06.085Z,18.66
2023-02-28T00:15:06.056Z,19.99
2023-02-28T00:16:04.773Z,19.60
2023-02-28T00:17:02.096Z,20.10
2023-02-28T00:17:59.435Z,20.86
2023-02-28T00:18:56.833Z,21.19
2023-02-28T00:19:54.204Z,22.11
2023-02-28T00:20:51.583Z,22.02
2023-02-28T00:21:48.945Z,22.47
2023-02-28T00:22:48.324Z,22.72
2023-02-28T00:23:45.794Z,22.07
2023-02-28T00:24:43.100Z,20.72
2023-02-28T00:25:40.439Z,20.57
2023-02-28T00:26:37.780Z,20.40
2023-02-28T00:27:39.133Z,19.91
2023-02-28T00:28:36.504Z,19.45
2023-02-28T00:29:33.884Z,19.36
2023-02-28T00:30:31.284Z,19.95
2023-02-28T00:31:28.900Z,20.28
2023-02-28T00:32:26.803Z,19.32
2023-02-28T00:33:24.508Z,20.76
2023-02-28T00:34:21.884Z,21.46
2023-02-28T00:35:19.299Z,20.24
2023-02-28T00:36:16.710Z,20.97
2023-02-28T00:37:14.302Z,20.98
2023-02-28T00:38:11.621Z,21.29
2023-02-28T00:39:09.008Z,21.84
2023-02-28T00:40:07.799Z,21.24
2023-02-28T00:41:05.884Z,20.60
2023-02-28T00:42:04.578Z,21.25
2023-02-28T00:43:01.984Z,20.76
2023-02-28T00:43:59.342Z,20.64
2023-02-28T00:44:56.760Z,20.95
2023-02-28T00:45:54.191Z,22.82
2023-02-28T00:46:52.657Z,23.24
2023-02-28T00:47:50.914Z,22.61
2023-02-28T00:48:48.578Z,23.95
2023-02-28T00:49:45.898Z,23.55
2023-02-28T00:50:43.269Z,23.30
2023-02-28T00:51:40.577Z,22.86
2023-02-28T00:52:37.896Z,22.80
2023-02-28T00:53:35.307Z,22.80
2023-02-28T00:54:32.706Z,23.11
2023-02-28T00:55:30.025Z,21.44
2023-02-28T00:56:27.366Z,23.01
2023-02-28T00:57:24.736Z,23.08
2023-02-28T00:58:22.246Z,24.58
2023-02-28T00:59:19.651Z,24.68
2023-02-28T01:00:18.258Z,26.22
2023-02-28T01:01:15.633Z,24.78
2023-02-28T01:02:13.160Z,23.88
2023-02-28T01:03:10.528Z,23.23
2023-02-28T01:04:08.101Z,23.63
2023-02-28T01:05:05.815Z,23.11
2023-02-28T01:06:03.347Z,21.80
2023-02-28T01:07:00.724Z,22.04
2023-02-28T01:07:58.042Z,21.46
2023-02-28T01:08:55.433Z,21.64
2023-02-28T01:09:52.799Z,20.97
2023-02-28T01:10:50.288Z,20.15
2023-02-28T01:11:47.745Z,20.39
2023-02-28T01:12:45.389Z,20.97
2023-02-28T01:13:43.127Z,20.53
2023-02-28T01:14:40.544Z,20.54
2023-02-28T01:15:38.174Z,19.65
2023-02-28T01:16:35.850Z,19.95
2023-02-28T01:17:33.153Z,18.53
2023-02-28T01:18:31.721Z,17.32
2023-02-28T01:19:29.076Z,17.37
2023-02-28T01:20:26.506Z,17.21
2023-02-28T01:21:23.945Z,16.71
2023-02-28T01:22:21.277Z,16.91
2023-02-28T01:23:19.373Z,16.27
2023-02-28T01:24:16.844Z,17.79
2023-02-28T01:25:14.287Z,18.72
2023-02-28T01:26:11.588Z,18.88
2023-02-28T01:27:08.882Z,18.74
2023-02-28T01:28:07.262Z,18.17
2023-02-28T01:29:04.664Z,18.52
2023-02-28T01:30:02.042Z,18.82
2023-02-28T01:30:59.573Z,18.80
2023-02-28T01:31:58.184Z,19.51
2023-02-28T01:32:55.621Z,19.01
2023-02-28T01:33:53.233Z,19.90
2023-02-28T01:34:50.584Z,20.46
2023-02-28T01:35:47.999Z,19.66
2023-02-28T01:36:45.511Z,19.33
2023-02-28T01:37:42.876Z,18.75
2023-02-28T01:38:40.778Z,19.33
2023-02-28T01:39:38.143Z,19.30
2023-02-28T01:40:35.468Z,19.58
2023-02-28T01:41:34.376Z,23.19
2023-02-28T01:42:31.693Z,25.95
2023-02-28T01:43:32.208Z,29.15
2023-02-28T01:44:48.117Z,35.78
2023-02-28T01:45:45.464Z,44.21
2023-02-28T01:46:43.844Z,56.13
2023-02-28T01:47:44.033Z,43.10
2023-02-28T01:48:44.616Z,26.90
2023-02-28T01:49:42.022Z,21.56
2023-02-28T01:50:43.950Z,20.07
2023-02-28T01:51:53.018Z,24.54
2023-02-28T01:52:51.715Z,32.49
2023-02-28T01:53:52.593Z,32.37
2023-02-28T01:54:53.456Z,29.63
2023-02-28T01:55:54.656Z,28.64
2023-02-28T01:57:01.750Z,21.98
2023-02-28T01:58:03.032Z,19.58
2023-02-28T01:59:00.729Z,18.06
2023-02-28T02:00:10.174Z,16.86
2023-02-28T02:01:07.555Z,19.79
2023-02-28T02:02:05.842Z,17.53
2023-02-28T02:03:10.157Z,17.85
2023-02-28T02:04:07.600Z,15.30
2023-02-28T02:05:07.684Z,14.19
2023-02-28T02:06:05.115Z,14.95
2023-02-28T02:07:02.629Z,15.15
2023-02-28T02:08:03.795Z,13.82
2023-02-28T02:09:01.221Z,13.42
2023-02-28T02:10:07.512Z,14.49
2023-02-28T02:11:09.712Z,15.36
2023-02-28T02:12:17.897Z,13.76
2023-02-28T02:13:23.751Z,13.03
2023-02-28T02:14:29.963Z,13.45
2023-02-28T02:15:45.895Z,13.08
2023-02-28T02:17:02.301Z,12.67
2023-02-28T02:18:05.518Z,12.09
2023-02-28T02:19:21.310Z,11.48
2023-02-28T02:20:37.164Z,10.85
2023-02-28T02:21:37.247Z,11.24
2023-02-28T02:22:43.355Z,11.59
2023-02-28T02:23:49.692Z,10.78
2023-02-28T02:24:48.517Z,10.19
2023-02-28T02:26:00.783Z,9.75
2023-02-28T02:27:19.309Z,8.22
2023-02-28T02:28:35.284Z,7.22
2023-02-28T02:29:51.306Z,6.85
2023-02-28T02:30:48.602Z,6.50
2023-02-28T02:31:53.064Z,5.95
2023-02-28T02:33:05.155Z,6.08
2023-02-28T02:34:21.044Z,5.92
2023-02-28T02:35:37.043Z,5.51
2023-02-28T02:36:37.997Z,6.24
2023-02-28T02:37:43.395Z,6.42
2023-02-28T02:38:50.815Z,5.99
2023-02-28T02:40:01.323Z,5.73
2023-02-28T02:41:16.324Z,5.85
2023-02-28T02:42:17.791Z,5.50
2023-02-28T02:43:22.111Z,6.22
2023-02-28T02:44:19.408Z,6.12
2023-02-28T02:45:26.281Z,5.66
2023-02-28T02:46:39.144Z,6.26
2023-02-28T02:47:38.691Z,6.26
2023-02-28T02:48:39.465Z,5.77
2023-02-28T02:49:38.235Z,5.74
2023-02-28T02:50:43.520Z,6.04
2023-02-28T02:51:42.406Z,6.60
2023-02-28T02:52:44.558Z,6.02
2023-02-28T02:53:55.225Z,6.81
2023-02-28T02:54:56.658Z,6.56
2023-02-28T02:55:55.558Z,6.39
2023-02-28T02:56:53.450Z,5.82
2023-02-28T02:58:12.589Z,5.97
2023-02-28T02:59:13.477Z,6.29
2023-02-28T03:00:12.034Z,6.48
2023-02-28T03:01:13.593Z,6.36
2023-02-28T03:02:15.250Z,6.20
2023-02-28T03:03:13.646Z,6.06
2023-02-28T03:04:17.844Z,6.69
2023-02-28T03:05:20.454Z,6.68
2023-02-28T03:06:17.777Z,6.72
2023-02-28T03:07:15.286Z,6.77
2023-02-28T03:08:12.827Z,7.70
2023-02-28T03:09:10.212Z,7.48
2023-02-28T03:10:25.994Z,6.98
2023-02-28T03:11:23.924Z,7.27
2023-02-28T03:12:21.830Z,6.73
2023-02-28T03:13:34.121Z,7.15
2023-02-28T03:14:40.586Z,7.58
2023-02-28T03:15:49.918Z,7.71
2023-02-28T03:16:56.121Z,7.87
2023-02-28T03:17:53.350Z,7.89
2023-02-28T03:18:59.446Z,7.33
2023-02-28T03:20:08.376Z,7.29
2023-02-28T03:21:38.208Z,8.18
2023-02-28T03:22:35.540Z,9.12
2023-02-28T03:23:35.340Z,9.22
2023-02-28T03:24:43.150Z,9.92
2023-02-28T03:25:43.190Z,9.60
2023-02-28T03:26:44.293Z,9.06
2023-02-28T03:27:47.702Z,8.78
2023-02-28T03:28:54.742Z,8.64
2023-02-28T03:29:59.351Z,9.25
2023-02-28T03:30:56.676Z,10.22
2023-02-28T03:32:06.621Z,9.96
2023-02-28T03:33:20.443Z,9.82
2023-02-28T03:34:24.788Z,10.54
2023-02-28T03:35:27.845Z,10.56
2023-02-28T03:36:37.500Z,10.43
2023-02-28T03:37:37.460Z,10.71
2023-02-28T03:39:03.823Z,10.69
2023-02-28T03:40:07.837Z,9.82
2023-02-28T03:41:21.996Z,8.56
2023-02-28T03:42:22.973Z,8.41
2023-02-28T03:43:24.915Z,8.63
2023-02-28T03:44:26.026Z,8.07
2023-02-28T03:45:28.020Z,8.16
2023-02-28T03:46:28.498Z,8.04
2023-02-28T03:47:36.063Z,8.66
2023-02-28T03:48:40.436Z,9.28
2023-02-28T03:49:48.882Z,8.96
2023-02-28T03:50:48.961Z,9.21
2023-02-28T03:51:48.322Z,9.36
2023-02-28T03:52:52.434Z,9.56
2023-02-28T03:53:54.427Z,8.61
2023-02-28T03:54:58.144Z,9.02
2023-02-28T03:56:13.580Z,9.36
2023-02-28T03:57:13.591Z,9.55
2023-02-28T03:58:21.432Z,10.10
2023-02-28T03:59:28.539Z,10.46
2023-02-28T04:00:29.954Z,10.11
2023-02-28T04:01:37.855Z,10.17
2023-02-28T04:02:35.468Z,11.84
2023-02-28T04:03:33.117Z,10.78
2023-02-28T04:04:30.735Z,10.33
2023-02-28T04:05:28.849Z,10.35
2023-02-28T04:06:26.531Z,10.39
2023-02-28T04:07:23.878Z,10.41
2023-02-28T04:08:22.237Z,9.68
2023-02-28T04:09:19.679Z,10.17
2023-02-28T04:10:17.539Z,10.37
2023-02-28T04:11:20.943Z,10.09
2023-02-28T04:12:18.292Z,10.64
2023-02-28T04:13:15.598Z,10.74
2023-02-28T04:14:13.194Z,10.63
2023-02-28T04:15:11.701Z,10.33
2023-02-28T04:16:18.656Z,10.39
2023-02-28T04:17:21.976Z,10.40
2023-02-28T04:18:19.330Z,10.30
2023-02-28T04:19:16.686Z,10.44
2023-02-28T04:20:14.105Z,10.18
2023-02-28T04:21:12.484Z,10.73
2023-02-28T04:22:10.564Z,10.20
2023-02-28T04:23:07.937Z,9.84
2023-02-28T04:24:05.735Z,9.19
2023-02-28T04:25:03.101Z,8.65
2023-02-28T04:26:00.564Z,8.04
2023-02-28T04:26:59.312Z,8.36
2023-02-28T04:27:56.653Z,8.03
2023-02-28T04:28:53.926Z,8.14
2023-02-28T04:29:51.281Z,8.04
2023-02-28T04:30:48.606Z,7.96
2023-02-28T04:31:46.029Z,8.92
2023-02-28T04:32:43.443Z,9.22
2023-02-28T04:33:40.762Z,8.63
2023-02-28T04:34:38.354Z,9.01
2023-02-28T04:35:35.732Z,8.02
2023-02-28T04:36:33.547Z,7.51
2023-02-28T04:37:30.878Z,7.62
2023-02-28T04:38:28.203Z,7.46
2023-02-28T04:39:25.925Z,6.93
2023-02-28T04:40:23.181Z,6.58
2023-02-28T04:41:20.774Z,6.73
2023-02-28T04:42:18.076Z,6.56
2023-02-28T04:43:15.396Z,5.58
2023-02-28T04:44:12.872Z,5.49
2023-02-28T04:45:11.288Z,6.00
2023-02-28T04:46:08.730Z,5.31
2023-02-28T04:47:06.286Z,5.36
2023-02-28T04:48:03.685Z,5.59
2023-02-28T04:49:00.967Z,5.12
2023-02-28T04:49:58.331Z,5.25
2023-02-28T04:50:56.397Z,4.84
2023-02-28T04:51:54.162Z,5.24
2023-02-28T04:52:51.499Z,4.93
2023-02-28T04:53:49.209Z,5.14
2023-02-28T04:54:46.514Z,5.09
2023-02-28T04:55:44.064Z,5.31
2023-02-28T04:56:41.426Z,5.15
2023-02-28T04:57:38.780Z,4.64
2023-02-28T04:58:36.212Z,4.61
2023-02-28T04:59:33.924Z,4.98
2023-02-28T05:00:31.288Z,5.06
2023-02-28T05:01:30.684Z,4.84
2023-02-28T05:02:28.302Z,5.15
2023-02-28T05:03:28.045Z,5.08
2023-02-28T05:04:25.460Z,5.06
2023-02-28T05:05:22.941Z,5.08
2023-02-28T05:06:21.446Z,5.00
2023-02-28T05:07:18.920Z,5.19
2023-02-28T05:08:16.251Z,4.84
2023-02-28T05:09:13.675Z,4.48
2023-02-28T05:10:11.732Z,4.45
2023-02-28T05:11:15.135Z,4.87
2023-02-28T05:12:12.488Z,5.05
2023-02-28T05:13:12.641Z,4.97
2023-02-28T05:14:15.077Z,4.46
2023-02-28T05:15:14.033Z,4.94
2023-02-28T05:16:11.574Z,4.40
2023-02-28T05:17:09.619Z,4.45
2023-02-28T05:18:07.084Z,4.81
2023-02-28T05:19:04.476Z,4.94
2023-02-28T05:20:14.642Z,5.37
2023-02-28T05:21:38.592Z,4.86
2023-02-28T05:22:36.040Z,4.61
2023-02-28T05:23:33.849Z,4.68
2023-02-28T05:24:31.421Z,4.52
2023-02-28T05:25:28.789Z,4.72
2023-02-28T05:26:27.049Z,5.07
2023-02-28T05:27:24.417Z,4.85
2023-02-28T05:28:21.765Z,4.90
2023-02-28T05:29:19.117Z,4.80
2023-02-28T05:30:16.663Z,4.74
2023-02-28T05:31:14.208Z,5.16
2023-02-28T05:32:12.985Z,5.42
2023-02-28T05:33:12.000Z,5.45
2023-02-28T05:34:11.553Z,5.29
2023-02-28T05:35:09.401Z,4.93
2023-02-28T05:36:07.097Z,4.49
2023-02-28T05:37:04.827Z,4.82
2023-02-28T05:38:02.763Z,5.33
2023-02-28T05:39:00.135Z,5.56
2023-02-28T05:39:57.427Z,6.08
2023-02-28T05:40:54.741Z,6.37
2023-02-28T05:41:52.065Z,6.50
2023-02-28T05:42:51.343Z,5.86
2023-02-28T05:43:49.203Z,6.05
2023-02-28T05:44:47.344Z,5.10
2023-02-28T05:45:44.706Z,5.52
2023-02-28T05:46:42.017Z,5.57
2023-02-28T05:47:39.705Z,6.09
2023-02-28T05:48:38.199Z,5.47
2023-02-28T05:49:35.660Z,5.58
2023-02-28T05:50:32.968Z,5.91
2023-02-28T05:51:31.099Z,5.98
2023-02-28T05:52:28.916Z,5.89
2023-02-28T05:53:27.423Z,5.99
2023-02-28T05:54:24.798Z,5.87
2023-02-28T05:55:22.245Z,7.18
2023-02-28T05:56:19.532Z,6.45
2023-02-28T05:57:24.424Z,6.15
2023-02-28T05:58:22.727Z,6.36
2023-02-28T05:59:20.091Z,6.07
2023-02-28T06:00:18.896Z,6.38
2023-02-28T06:01:24.191Z,6.05
2023-02-28T06:02:21.529Z,6.47
2023-02-28T06:03:18.968Z,5.97
2023-02-28T06:04:31.051Z,7.01
2023-02-28T06:05:29.084Z,19.53
2023-02-28T06:06:26.453Z,13.78
2023-02-28T06:07:23.753Z,13.63
2023-02-28T06:08:21.189Z,12.34
2023-02-28T06:09:18.975Z,10.53
2023-02-28T06:10:16.443Z,10.22
2023-02-28T06:11:14.001Z,8.31
2023-02-28T06:12:11.631Z,8.15
2023-02-28T06:13:09.311Z,8.77
2023-02-28T06:14:06.992Z,8.87
2023-02-28T06:15:04.595Z,8.84
2023-02-28T06:16:02.260Z,8.63
2023-02-28T06:17:02.483Z,9.30
2023-02-28T06:18:00.817Z,8.87
2023-02-28T06:18:59.021Z,8.68
2023-02-28T06:19:56.345Z,7.76
2023-02-28T06:20:55.582Z,7.56
2023-02-28T06:21:55.769Z,6.85
2023-02-28T06:22:55.439Z,6.88
2023-02-28T06:23:52.757Z,7.29
2023-02-28T06:24:50.187Z,7.39
2023-02-28T06:25:48.049Z,6.77
2023-02-28T06:26:45.413Z,6.95
2023-02-28T06:27:42.945Z,6.90
2023-02-28T06:28:40.412Z,7.81
2023-02-28T06:29:40.733Z,8.03
2023-02-28T06:30:39.158Z,8.75
2023-02-28T06:31:36.720Z,8.15
2023-02-28T06:32:34.086Z,8.49
2023-02-28T06:33:31.407Z,8.81
2023-02-28T06:34:28.778Z,9.99
2023-02-28T06:35:26.597Z,10.77
2023-02-28T06:36:24.007Z,10.70
2023-02-28T06:37:21.439Z,10.81
2023-02-28T06:38:19.261Z,10.88
2023-02-28T06:39:16.618Z,11.71
2023-02-28T06:40:14.263Z,11.61
2023-02-28T06:41:11.782Z,11.44
2023-02-28T06:42:09.089Z,12.38
2023-02-28T06:43:06.405Z,12.50
2023-02-28T06:44:03.721Z,12.37
2023-02-28T06:45:01.073Z,13.23
2023-02-28T06:45:59.887Z,13.64
2023-02-28T06:46:57.196Z,12.92
2023-02-28T06:47:54.472Z,13.04
2023-02-28T06:48:51.885Z,14.14
2023-02-28T06:49:49.231Z,14.14
2023-02-28T06:50:46.647Z,14.00
2023-02-28T06:51:46.136Z,15.28
2023-02-28T06:52:43.566Z,15.14
2023-02-28T06:53:41.744Z,15.86
2023-02-28T06:54:39.415Z,14.74
2023-02-28T06:55:38.481Z,15.35
2023-02-28T06:56:36.395Z,14.85
2023-02-28T06:57:34.847Z,15.52
2023-02-28T06:58:32.320Z,16.60
2023-02-28T06:59:29.713Z,16.97
2023-02-28T07:00:27.079Z,17.63
2023-02-28T07:01:25.355Z,18.29
2023-02-28T07:02:22.746Z,17.62
2023-02-28T07:03:20.482Z,18.12
2023-02-28T07:04:17.893Z,19.03
2023-02-28T07:05:15.273Z,18.19
2023-02-28T07:06:12.621Z,17.69
2023-02-28T07:07:09.961Z,17.84
2023-02-28T07:08:07.362Z,18.39
2023-02-28T07:09:05.188Z,18.88
2023-02-28T07:10:02.656Z,17.42
2023-02-28T07:11:00.046Z,17.61
2023-02-28T07:11:57.466Z,17.82
2023-02-28T07:12:54.759Z,16.96
2023-02-28T07:13:55.596Z,17.31
2023-02-28T07:14:53.015Z,17.46
2023-02-28T07:15:57.520Z,15.92
2023-02-28T07:16:54.880Z,17.12
2023-02-28T07:17:52.283Z,17.04
2023-02-28T07:18:50.190Z,16.90
2023-02-28T07:19:47.563Z,16.37
2023-02-28T07:20:44.939Z,16.69
2023-02-28T07:21:42.291Z,16.47
2023-02-28T07:22:39.786Z,16.44
2023-02-28T07:23:39.049Z,16.58
2023-02-28T07:24:36.556Z,17.20
2023-02-28T07:25:33.879Z,16.77
2023-02-28T07:26:31.298Z,18.54
2023-02-28T07:27:28.729Z,17.77
2023-02-28T07:28:26.098Z,18.40
2023-02-28T07:29:23.578Z,18.73
2023-02-28T07:30:21.154Z,18.39
2023-02-28T07:31:19.618Z,17.75
2023-02-28T07:32:17.214Z,18.38
2023-02-28T07:33:14.732Z,19.01
2023-02-28T07:34:12.066Z,17.72
2023-02-28T07:35:09.612Z,17.70
2023-02-28T07:36:16.343Z,18.75
2023-02-28T07:37:13.862Z,18.10
2023-02-28T07:38:11.407Z,18.54
2023-02-28T07:39:11.310Z,17.54
2023-02-28T07:40:12.515Z,18.55
2023-02-28T07:41:10.401Z,17.93
2023-02-28T07:42:11.414Z,18.84
2023-02-28T07:43:09.165Z,17.83
2023-02-28T07:44:06.563Z,18.30
2023-02-28T07:45:03.978Z,18.44
2023-02-28T07:46:08.789Z,17.83
2023-02-28T07:47:06.192Z,18.42
2023-02-28T07:48:03.671Z,17.79
2023-02-28T07:49:01.101Z,17.58
2023-02-28T07:49:59.164Z,18.60
2023-02-28T07:50:57.404Z,19.11
2023-02-28T07:51:54.848Z,18.70
2023-02-28T07:52:52.309Z,18.85
2023-02-28T07:53:49.761Z,19.07
2023-02-28T07:54:47.072Z,19.32
2023-02-28T07:55:44.386Z,19.62
2023-02-28T07:56:41.698Z,19.45
2023-02-28T07:57:39.064Z,21.06
2023-02-28T07:58:36.488Z,21.34
2023-02-28T07:59:33.980Z,20.56
2023-02-28T08:00:33.117Z,21.15
2023-02-28T08:01:30.832Z,21.17
2023-02-28T08:02:28.407Z,21.72
2023-02-28T08:03:26.128Z,21.30
2023-02-28T08:04:23.488Z,22.10
2023-02-28T08:05:22.264Z,22.37
2023-02-28T08:06:21.630Z,22.60
2023-02-28T08:07:19.599Z,22.56
2023-02-28T08:08:17.752Z,23.52
2023-02-28T08:09:15.803Z,23.88
2023-02-28T08:10:13.157Z,22.99
2023-02-28T08:11:10.510Z,22.58
2023-02-28T08:12:08.511Z,24.08
2023-02-28T08:13:05.807Z,23.65
2023-02-28T08:14:03.426Z,25.73
2023-02-28T08:15:00.747Z,23.82
2023-02-28T08:15:58.320Z,24.53
2023-02-28T08:16:55.643Z,24.64
2023-02-28T08:17:53.028Z,24.47
2023-02-28T08:18:51.782Z,24.57
2023-02-28T08:19:49.202Z,24.61
2023-02-28T08:20:46.528Z,26.19
2023-02-28T08:21:43.934Z,25.97
2023-02-28T08:22:41.347Z,25.67
2023-02-28T08:23:39.099Z,27.39
2023-02-28T08:24:36.440Z,27.46
2023-02-28T08:25:33.749Z,27.40
2023-02-28T08:26:31.082Z,27.16
2023-02-28T08:27:28.462Z,27.94
2023-02-28T08:28:27.517Z,28.79
2023-02-28T08:29:25.077Z,28.54
2023-02-28T08:30:22.516Z,28.09
2023-02-28T08:31:20.253Z,28.42
2023-02-28T08:32:28.881Z,28.64
2023-02-28T08:33:27.887Z,27.58
2023-02-28T08:34:25.691Z,27.52
2023-02-28T08:35:23.229Z,27.93
2023-02-28T08:36:20.850Z,28.59
2023-02-28T08:37:18.287Z,29.10
2023-02-28T08:38:15.654Z,28.49
2023-02-28T08:39:13.576Z,27.63
2023-02-28T08:40:11.291Z,28.44
2023-02-28T08:41:11.021Z,27.90
2023-02-28T08:42:08.384Z,27.09
2023-02-28T08:43:05.892Z,26.38
2023-02-28T08:44:03.324Z,26.36
2023-02-28T08:45:00.710Z,26.59
2023-02-28T08:45:58.373Z,28.16
2023-02-28T08:46:55.856Z,25.78
2023-02-28T08:47:55.118Z,27.17
2023-02-28T08:48:54.310Z,25.27
2023-02-28T08:49:51.955Z,24.98
2023-02-28T08:51:06.642Z,25.08
2023-02-28T08:52:05.345Z,24.13
2023-02-28T08:53:02.730Z,23.48
2023-02-28T08:54:01.126Z,22.13
2023-02-28T08:54:58.501Z,22.50
2023-02-28T08:55:58.756Z,21.39
2023-02-28T08:56:56.087Z,20.52
2023-02-28T08:57:53.615Z,20.77
2023-02-28T08:58:51.655Z,21.27
2023-02-28T08:59:48.944Z,20.34
2023-02-28T09:00:46.254Z,20.77
2023-02-28T09:01:44.715Z,20.75
2023-02-28T09:02:43.813Z,21.30
2023-02-28T09:03:47.154Z,21.40
2023-02-28T09:04:46.443Z,21.68
2023-02-28T09:05:52.996Z,20.17
2023-02-28T09:06:50.346Z,20.91
2023-02-28T09:07:47.636Z,20.37
2023-02-28T09:08:45.053Z,19.76
2023-02-28T09:09:54.663Z,19.41
2023-02-28T09:10:52.281Z,18.91
2023-02-28T09:11:49.663Z,19.74
2023-02-28T09:12:48.035Z,19.16
2023-02-28T09:13:46.264Z,19.09
2023-02-28T09:14:43.592Z,18.28
2023-02-28T09:15:41.001Z,17.56
2023-02-28T09:16:38.606Z,18.24
2023-02-28T09:17:36.216Z,17.70
2023-02-28T09:18:37.081Z,17.28
2023-02-28T09:19:34.487Z,18.77
2023-02-28T09:20:31.906Z,17.50
2023-02-28T09:21:29.676Z,17.55
2023-02-28T09:22:27.296Z,17.42
2023-02-28T09:23:24.714Z,17.95
2023-02-28T09:24:22.558Z,18.65
2023-02-28T09:25:19.910Z,17.88
2023-02-28T09:26:18.507Z,17.22
2023-02-28T09:27:15.860Z,17.59
2023-02-28T09:28:13.252Z,17.40
2023-02-28T09:29:11.110Z,16.87
2023-02-28T09:30:08.835Z,17.39
2023-02-28T09:31:06.226Z,16.58
2023-02-28T09:32:03.672Z,16.54
2023-02-28T09:33:01.137Z,16.59
2023-02-28T09:34:00.314Z,16.07
2023-02-28T09:34:57.783Z,16.66
2023-02-28T09:36:02.153Z,16.30
2023-02-28T09:36:59.670Z,16.51
2023-02-28T09:37:57.547Z,16.53
2023-02-28T09:38:54.903Z,16.50
2023-02-28T09:39:52.282Z,17.20
2023-02-28T09:40:54.659Z,17.21
2023-02-28T09:41:53.692Z,16.99
2023-02-28T09:42:53.951Z,15.82
2023-02-28T09:43:54.523Z,16.34
2023-02-28T09:44:52.085Z,16.60
2023-02-28T09:46:09.050Z,17.36
2023-02-28T09:47:14.792Z,16.73
2023-02-28T09:48:25.835Z,16.25
2023-02-28T09:49:32.679Z,17.70
2023-02-28T09:50:34.565Z,18.50
2023-02-28T09:51:41.169Z,18.65
2023-02-28T09:52:39.203Z,18.24
2023-02-28T09:53:40.788Z,17.45
2023-02-28T09:54:38.386Z,18.38
2023-02-28T09:55:46.208Z,17.82
2023-02-28T09:56:44.769Z,17.21
2023-02-28T09:57:43.395Z,17.38
2023-02-28T09:58:54.829Z,17.29
2023-02-28T09:59:52.191Z,17.93
2023-02-28T10:00:59.115Z,17.35
2023-02-28T10:02:00.245Z,16.75
2023-02-28T10:03:00.896Z,16.27
2023-02-28T10:04:05.082Z,15.50
2023-02-28T10:05:13.680Z,15.15
2023-02-28T10:06:10.987Z,15.77
2023-02-28T10:07:22.622Z,15.57
2023-02-28T10:08:49.214Z,15.19
2023-02-28T10:09:50.912Z,14.11
2023-02-28T10:10:53.615Z,14.71
2023-02-28T10:11:59.032Z,13.61
2023-02-28T10:13:00.002Z,14.13
2023-02-28T10:14:13.677Z,13.71
2023-02-28T10:15:15.536Z,13.37
2023-02-28T10:16:17.443Z,14.54
2023-02-28T10:17:22.576Z,14.89
2023-02-28T10:18:26.156Z,14.80
2023-02-28T10:19:33.447Z,15.02
2023-02-28T10:20:34.990Z,14.46
2023-02-28T10:21:42.702Z,14.94
2023-02-28T10:22:58.610Z,16.03
2023-02-28T10:24:03.475Z,14.79
2023-02-28T10:25:05.974Z,14.82
2023-02-28T10:26:13.750Z,15.16
2023-02-28T10:27:13.814Z,14.78
2023-02-28T10:28:13.239Z,14.13
2023-02-28T10:29:11.742Z,13.40
2023-02-28T10:30:12.056Z,13.68
2023-02-28T10:31:15.727Z,13.92
2023-02-28T10:32:18.937Z,14.00
2023-02-28T10:33:22.892Z,14.55
2023-02-28T10:34:20.239Z,13.82
2023-02-28T10:35:20.764Z,13.96
2023-02-28T10:36:20.194Z,14.36
2023-02-28T10:37:17.709Z,13.61
2023-02-28T10:38:20.164Z,14.97
2023-02-28T10:39:36.421Z,15.01
2023-02-28T10:40:36.697Z,14.56
2023-02-28T10:41:37.391Z,13.30
2023-02-28T10:42:34.947Z,13.83
2023-02-28T10:43:32.398Z,13.13
2023-02-28T10:44:29.744Z,13.23
2023-02-28T10:45:28.903Z,13.34
2023-02-28T10:46:27.047Z,13.44
2023-02-28T10:47:25.037Z,12.74
2023-02-28T10:48:22.356Z,11.91
2023-02-28T10:49:28.209Z,11.76
2023-02-28T10:50:30.296Z,12.58
2023-02-28T10:51:36.021Z,13.48
2023-02-28T10:52:41.207Z,13.75
2023-02-28T10:54:00.142Z,12.66
2023-02-28T10:55:15.523Z,12.88
2023-02-28T10:56:13.337Z,12.66
2023-02-28T10:57:21.861Z,12.97
2023-02-28T10:58:23.900Z,12.56
2023-02-28T10:59:32.047Z,12.23
2023-02-28T11:00:38.135Z,13.06
2023-02-28T11:01:43.084Z,12.41
2023-02-28T11:02:43.840Z,12.26
2023-02-28T11:03:41.239Z,12.56
2023-02-28T11:04:41.784Z,11.78
2023-02-28T11:05:39.292Z,12.27
2023-02-28T11:06:36.679Z,12.49
2023-02-28T11:07:50.633Z,12.04
2023-02-28T11:08:50.177Z,12.83
2023-02-28T11:09:50.321Z,12.79
2023-02-28T11:10:49.428Z,13.43
2023-02-28T11:11:48.461Z,13.85
2023-02-28T11:12:52.600Z,14.02
2023-02-28T11:13:53.121Z,13.85
2023-02-28T11:14:52.591Z,14.90
2023-02-28T11:15:59.186Z,13.86
2023-02-28T11:17:14.462Z,13.33
2023-02-28T11:18:20.677Z,14.40
2023-02-28T11:19:30.352Z,14.05
2023-02-28T11:20:30.978Z,14.31
2023-02-28T11:21:34.851Z,14.66
2023-02-28T11:22:36.965Z,14.71
2023-02-28T11:23:38.056Z,14.97
2023-02-28T11:24:43.219Z,15.40
2023-02-28T11:25:41.063Z,15.79
2023-02-28T11:26:49.868Z,15.96
2023-02-28T11:27:51.560Z,16.13
2023-02-28T11:28:48.861Z,15.60
2023-02-28T11:29:48.324Z,16.76
2023-02-28T11:30:47.372Z,15.09
2023-02-28T11:31:44.768Z,15.84
2023-02-28T11:32:49.283Z,14.37
2023-02-28T11:33:51.991Z,14.97
2023-02-28T11:35:08.075Z,15.07
2023-02-28T11:36:11.348Z,15.27
2023-02-28T11:37:17.130Z,15.19
2023-02-28T11:38:14.596Z,15.98
2023-02-28T11:39:13.485Z,16.01
2023-02-28T11:40:15.675Z,16.37
2023-02-28T11:41:31.528Z,16.44
2023-02-28T11:42:29.724Z,16.26
2023-02-28T11:43:42.178Z,15.98
2023-02-28T11:44:39.546Z,15.96
2023-02-28T11:45:55.405Z,16.57
2023-02-28T11:47:01.134Z,17.47
2023-02-28T11:48:10.511Z,18.01
2023-02-28T11:49:26.441Z,17.45
2023-02-28T11:50:50.108Z,17.96
2023-02-28T11:51:52.404Z,17.91
2023-02-28T11:52:54.605Z,17.30
2023-02-28T11:54:10.083Z,18.13
2023-02-28T11:55:22.519Z,18.16
2023-02-28T11:56:19.838Z,18.35
2023-02-28T11:57:29.982Z,17.80
2023-02-28T11:58:40.762Z,18.22
2023-02-28T11:59:45.202Z,18.29
2023-02-28T12:00:48.233Z,18.39
2023-02-28T12:01:57.557Z,18.75
2023-02-28T12:03:12.957Z,18.46
2023-02-28T12:04:13.090Z,19.02
2023-02-28T12:05:37.471Z,19.20
2023-02-28T12:06:41.288Z,19.49
2023-02-28T12:07:50.657Z,19.95
2023-02-28T12:08:50.746Z,20.34
2023-02-28T12:10:03.128Z,20.15
2023-02-28T12:11:12.405Z,19.82
2023-02-28T12:12:32.872Z,20.02
2023-02-28T12:13:34.770Z,20.95
2023-02-28T12:14:50.708Z,21.18
2023-02-28T12:16:06.570Z,19.63
2023-02-28T12:17:22.459Z,19.23
2023-02-28T12:18:31.751Z,20.70
2023-02-28T12:19:41.175Z,20.08
2023-02-28T12:20:46.753Z,20.24
2023-02-28T12:22:19.438Z,19.26
2023-02-28T12:23:35.234Z,19.80
2023-02-28T12:24:35.366Z,19.69
2023-02-28T12:25:45.869Z,18.13
2023-02-28T12:26:45.402Z,18.78
2023-02-28T12:27:46.994Z,19.26
2023-02-28T12:28:51.409Z,19.23
2023-02-28T12:30:08.229Z,19.64
2023-02-28T12:31:11.001Z,18.38
2023-02-28T12:32:16.980Z,18.05
2023-02-28T12:33:18.092Z,18.95
2023-02-28T12:34:21.488Z,18.06
2023-02-28T12:35:29.358Z,18.72
2023-02-28T12:36:28.401Z,18.74
2023-02-28T12:37:47.121Z,19.08
2023-02-28T12:39:04.662Z,19.44
2023-02-28T12:40:07.077Z,18.29
2023-02-28T12:41:09.512Z,17.94
2023-02-28T12:42:13.784Z,18.70
2023-02-28T12:43:14.468Z,19.09
2023-02-28T12:44:22.284Z,18.52
2023-02-28T12:45:21.980Z,18.56
2023-02-28T12:46:32.567Z,18.86
2023-02-28T12:47:30.052Z,18.10
2023-02-28T12:48:41.236Z,17.59
2023-02-28T12:49:44.767Z,18.65
2023-02-28T12:50:43.393Z,17.46
2023-02-28T12:51:42.021Z,17.64
2023-02-28T12:52:55.294Z,18.20
2023-02-28T12:53:52.650Z,17.74
2023-02-28T12:54:56.247Z,18.60
2023-02-28T12:56:04.171Z,18.02
2023-02-28T12:57:12.635Z,18.43
2023-02-28T12:58:26.169Z,18.52
2023-02-28T12:59:28.166Z,17.12
2023-02-28T13:00:31.756Z,17.80
2023-02-28T13:01:41.334Z,17.47
2023-02-28T13:02:44.516Z,18.70
2023-02-28T13:04:12.232Z,18.39
2023-02-28T13:05:24.532Z,18.70
2023-02-28T13:06:27.752Z,18.37
2023-02-28T13:07:43.309Z,17.61
2023-02-28T13:08:56.912Z,17.76
2023-02-28T13:09:56.274Z,18.37
2023-02-28T13:10:56.448Z,16.63
2023-02-28T13:11:55.506Z,18.46
2023-02-28T13:12:54.962Z,18.54